Terminal Aerodrome Forecast
Issued by NWS Wilmington, OH

Current Version | Previous Version | Graphics & Text | Print | Product List | Glossary On
Versions: 1 2 3 4 5 6 7 8 9 10 11 12 13 14 15 16 17 18 19 20 21 22 23 24 25 26
000
FTUS41 KILN 241515 AAA
TAFDAY
TAF AMD
KDAY 241515Z 2415/2512 19010KT P6SM SCT040 BKN120
     FM241900 20012KT P6SM VCTS BKN045CB
     FM242200 19010KT P6SM SCT050 BKN250
     FM250300 20008KT P6SM SCT040 BKN250=

USA.gov is the U.S. government's official web portal to all federal, state and local government web resources and services.